Warm Springs Summit, Nevada Weather observations

Data are for observation ending at time listed.
 Day   Time    Ave.   Ave.  Ave.  Vector   Max.   Stn.    Total    Solar   Ave.  
  of    of     Air    Rel.  Wind   Wind    Wind   Baro.  Precip.   Rad.    Soil  
Year   Day     Temp.  Hum.  Speed  Dir.    Gust   Pres.                    Temp. 
2015   (PST)    F      %     mph   deg.    mph     mb.     in.     W/m2     F   
------------------------------------------------------------------------------
 145    7:40   51.4    58    6.8   274      9.9   771.6    0.00     598    49.4
 145    7:50   51.5    57    7.2   269      9.8   771.7    0.00     632    49.4
 145    8:00   51.7    56    6.1   265     10.2   771.7    0.00     655    49.5
 145    8:10   52.2    54    6.2   261      9.6   771.7    0.00     707    49.6
 145    8:20   52.9    52    5.9   271     10.8   771.8    0.00     729    49.7
 145    8:30   52.9    50    6.6   262     11.3   771.9    0.00     740    49.9
 145    8:40   54.0    48    5.6   255      9.6   771.9    0.00     764    50.0
 145    8:50   54.7    46    4.8   261      9.8   771.9    0.00     774    50.2
 145    9:00   54.4    44    5.6   274     12.1   771.9    0.00     808    50.4
 145    9:10   55.4    43    5.1   279     11.5   772.0    0.00     857    50.6
 145    9:20   56.9    42    4.9   232      9.8   772.0    0.00     880    50.8
 145    9:30   58.8    40    6.5   189     13.7   771.9    0.00     892    51.1
 145    9:40   58.9    46    4.9   121     10.7   772.0    0.00     933    51.3
 145    9:50   57.8    48    6.6   136     11.6   772.0    0.00     743    51.6
 145   10:00   58.1    36    4.0   205      9.6   772.0    0.00     956    51.9
 145   10:10   60.0    34    4.7   215     10.9   772.1    0.00    1005    52.2
 145   10:20   59.6    34    7.5   209     14.9   772.0    0.00    1019    52.5
 145   10:30   59.6    34    6.9   220     15.2   772.0    0.00     997    52.8
 145   10:40   59.3    33    9.1   210     13.9   772.0    0.00    1037    53.2
 145   10:50   60.0    31    5.3   221      9.7   772.0    0.00    1062    53.5
 145   11:00   60.7    30    6.0   228     15.8   772.0    0.00    1076    53.9
 145   11:10   61.1    28    9.6   185     16.0   772.0    0.00    1119    54.2
 145   11:20   61.1    26    8.8   192     18.1   772.0    0.00    1118    54.6
 145   11:30   62.3    26    7.5   164     15.4   771.9    0.00    1079    55.0
 145   11:40   64.2    29    8.4   161     15.5   771.9    0.00    1155    55.3
 145   11:50   63.1    27    8.0   194     15.5   771.9    0.00    1180    55.7
 145   12:00   63.9    29   11.8   171     19.3   771.8    0.00    1073    56.1
 145   12:10   60.7    32    9.7   174     18.7   771.7    0.00     454    56.5
 145   12:20   62.0    27   10.2   200     18.8   771.6    0.00    1183    56.9
 145   12:30   62.4    26   12.7   229     21.8   771.6    0.00    1194    57.3
 145   12:40   63.3    25    8.1   205     16.4   771.6    0.00    1133    57.7
 145   12:50   62.9    26   13.1   216     26.0   771.4    0.00     923    58.1
 145   13:00   60.5    26    9.9   189     25.2   771.3    0.00     550    58.5
 145   13:10   61.5    25   15.7   233     24.7   771.2    0.00    1115    58.8
 145   13:20   61.9    25    9.9   244     19.6   771.2    0.00    1033    59.2
 145   13:30   62.5    24   10.6   218     21.8   771.1    0.00     670    59.5
 145   13:40   62.8    25   10.4   192     18.2   771.0    0.00    1025    59.9
 145   13:50   63.7    25   10.5   245     17.7   771.0    0.00     767    60.2
 145   14:00   63.7    25   12.1   249     24.6   771.0    0.00     824    60.5
 145   14:10   62.9    25   16.1   210     24.7   770.8    0.00     718    60.8
 145   14:20   61.9    26   13.1   217     23.1   770.8    0.00     651    61.1
 145   14:30   62.9    24   13.5   249     25.3   770.8    0.00     884    61.3
 145   14:40   62.4    25   16.9   248     26.5   770.7    0.00     478    61.6
 145   14:50   61.4    25   13.7   214     23.2   770.6    0.00     407    61.8
 145   15:00   62.6    25   15.3   234     28.0   770.4    0.00     513    62.0
 145   15:10   62.0    25   16.0   245     29.7   770.4    0.00     452    62.2
 145   15:20   60.7    28   15.7   230     26.1   770.4    0.00     331    62.4
 145   15:30   60.9    29   16.1   220     24.9   770.3    0.00     372    62.5
 145   15:40   60.6    30   16.5   234     29.5   770.3    0.00     324    62.6
 145   15:50   60.3    30   17.4   226     26.5   770.3    0.00     270    62.7
 145   16:00   60.2    30   14.2   225     22.3   770.2    0.00     269    62.8
 145   16:10   60.2    30   18.0   245     26.6   770.2    0.00     264    62.9
 145   16:20   60.4    30   17.7   257     23.7   770.2    0.00     261    62.9
 145   16:30   60.4    29   18.9   250     25.6   770.1    0.00     241    62.9
 145   16:40   60.0    30   14.8   236     22.3   770.1    0.00     193    62.9
 145   16:50   60.0    31   17.3   254     23.3   769.9    0.00     170    62.9
 145   17:00   59.8    31   14.7   237     21.4   770.0    0.00     158    62.9
 145   17:10   59.6    33   13.3   225     22.0   769.9    0.00     181    62.9
 145   17:20   59.6    33   14.5   217     26.0   769.9    0.00     143    62.8
 145   17:30   59.5    32   16.7   249     26.7   770.0    0.00      93    62.8
 145   17:40   59.2    32   15.3   249     21.0   770.0    0.00      53    62.7
 145   17:50   59.1    33   15.4   244     23.6   770.1    0.00      47    62.7
 145   18:00   58.6    36   19.1   235     34.5   770.0    0.00      42    62.6
 145   18:10   58.0    38   18.6   243     27.1   770.2    0.00      33    62.5
 145   18:20   57.8    39   17.2   247     23.9   770.3    0.00      30    62.4
 145   18:30   57.2    42   16.0   242     23.0   770.4    0.00      22    62.3
 145   18:40   56.9    44   13.1   231     20.9   770.5    0.00      14    62.2
 145   18:50   56.5    46   13.5   216     20.7   770.5    0.00       3    62.2
 145   19:00   56.4    46   15.9   235     26.0   770.5    0.00       1    62.0
 145   19:10   56.2    44   22.2   242     31.3   770.5    0.00       0    61.9
 145   19:20   52.3    61   27.0   244     42.7   770.5    0.04       0    61.8
 145   19:30   50.0    64   19.6   253     40.9   770.9    0.05       0    61.7
 145   19:40   51.5    60   24.4   229     41.0   770.7    0.01       0    61.6
 145   19:50   50.7    66   30.6   233     47.5   770.4    0.00       0    61.4
 145   20:00   49.2    71   33.3   233     46.8   770.5    0.00       0    61.3
 145   20:10   48.5    73   30.6   236     38.4   770.5    0.00       0    61.1
 145   20:20   48.3    74   32.0   244     40.8   770.5    0.00       0    61.0
 145   20:30   48.1    76   36.2   250     42.4   770.4    0.00       0    60.7
 145   20:40   48.0    77   32.2   248     40.3   770.6    0.00       0    60.5
 145   20:50   48.1    76   33.2   252     41.3   770.7    0.00       0    60.3
 145   21:00   48.0    77   32.1   255     41.0   770.8    0.00       0    60.1
 145   21:10   48.1    75   33.0   254     40.8   770.7    0.00       0    59.9
 145   21:20   47.9    76   30.6   257     37.0   771.0    0.00       0    59.6
 145   21:30   47.9    76   32.6   262     39.0   771.0    0.00       0    59.5
 145   21:40   48.0    75   30.4   257     36.2   771.2    0.00       0    59.3
 145   21:50   48.0    75   30.5   259     37.3   771.3    0.00       0    59.1
 145   22:00   47.9    74   30.8   260     35.7   771.3    0.00       0    58.9
 145   22:10   47.8    74   29.1   258     34.0   771.3    0.00       0    58.7
 145   22:20   47.8    74   27.5   256     32.9   771.4    0.00       0    58.4
 145   22:30   47.7    73   24.0   255     29.5   771.6    0.00       0    58.3
 145   22:40   48.0    70   22.3   249     27.5   771.7    0.00       0    58.1
 145   22:50   48.2    69   23.3   247     28.2   771.7    0.00       0    57.9
 145   23:00   48.3    68   21.1   244     25.3   771.8    0.00       0    57.7
 145   23:10   48.5    66   19.5   247     23.8   771.9    0.00       0    57.6
 145   23:20   48.4    65   16.8   252     22.3   771.9    0.00       0    57.4
 145   23:30   48.4    64   16.2   248     19.3   771.9    0.00       0    57.2
 145   23:40   48.3    65   14.4   251     18.2   771.9    0.00       0    57.1
 145   23:50   48.0    66   14.1   249     19.1   771.9    0.00       0    56.9
 146    0:00   47.5    68   12.9   255     17.6   771.8    0.00       0    56.8
 146    0:10   47.0    70   12.9   262     16.0   771.9    0.00       0    56.6
 146    0:20   46.8    71   11.3   266     13.7   772.0    0.00       0    56.5
 146    0:30   46.8    71    8.8   266     12.0   772.0    0.00       0    56.3
 146    0:40   46.7    71    8.0   258     11.7   771.9    0.00       0    56.2
 146    0:50   47.0    70    8.3   247     10.9   771.8    0.00       0    56.0
 146    1:00   47.0    70    4.5   267      6.3   771.9    0.00       0    55.9
 146    1:10   47.2    68    6.0   243      8.1   771.9    0.00       0    55.8
 146    1:20   47.1    69    6.8   244      8.2   771.8    0.00       0    55.6
 146    1:30   46.9    69    6.1   267      7.5   771.9    0.00       0    55.5
 146    1:40   46.8    70    6.8   286      8.6   771.8    0.00       0    55.3
 146    1:50   46.7    70    7.3   285      8.7   771.8    0.00       0    55.2
 146    2:00   46.8    70    7.5   285      8.7   771.8    0.00       0    55.1
 146    2:10   47.0    70    9.8   300     11.4   771.7    0.00       0    55.0
 146    2:20   48.1    68    9.5   309     11.7   771.7    0.00       0    54.8
 146    2:30   48.5    67    4.5   300      7.6   771.8    0.00       0    54.7
 146    2:40   47.8    69    6.4   313      8.9   771.7    0.00       0    54.6
 146    2:50   48.1    68    6.0   324      8.5   771.8    0.00       0    54.5
 146    3:00   48.3    67    2.6   292      4.1   771.9    0.00       0    54.4
 146    3:10   47.1    70    2.5   227      4.4   771.8    0.00       0    54.2
 146    3:20   47.2    70    2.5   280      6.3   771.8    0.00       0    54.1
 146    3:30   47.8    69    4.0   334      6.0   771.8    0.00       0    54.0
 146    3:40   48.1    68    3.0     5      4.0   771.8    0.00       0    53.9
 146    3:50   48.1    68    2.7    59      4.3   771.9    0.00       0    53.8
 146    4:00   47.3    70    2.9    66      4.6   771.9    0.00       0    53.7
 146    4:10   46.1    76    5.4   143      8.1   772.0    0.00       0    53.6
 146    4:20   45.4    78    4.4   129      6.7   772.0    0.00       1    53.5
 146    4:30   46.0    75    4.7    80      5.7   772.0    0.00       3    53.4
 146    4:40   46.0    76    5.4    86      6.9   772.0    0.00      10    53.3
 146    4:50   46.1    77    6.7    89      8.7   772.0    0.00      27    53.3
 146    5:00   46.0    78    8.0    83      9.0   772.0    0.00      54    53.2
 146    5:10   46.7    78    7.2    76      8.6   772.1    0.00     101    53.1
 146    5:20   46.8    78    6.1    72      7.7   772.1    0.00      82    53.0
 146    5:30   48.0    71    4.5    91      6.6   772.2    0.00     151    52.9
 146    5:40   48.5    70    4.8    74      7.2   772.3    0.00     160    52.9
 146    5:50   48.2    74    5.1    43      6.4   772.3    0.00     219    52.8
 146    6:00   49.0    73    4.6    29      6.0   772.4    0.00     312    52.7
 146    6:10   49.8    69    3.3    55      6.3   772.5    0.00     203    52.6
 146    6:20   49.2    74    4.0    62      6.5   772.5    0.00     230    52.6
 146    6:30   50.6    72    4.4    63      6.7   772.5    0.00     444    52.4
 146    6:40   50.0    74    4.9    47      7.5   772.6    0.00     347    52.5
 146    6:50   48.7    76    5.5    58      7.4   772.6    0.00     210    52.4
 146    7:00   48.9    76    5.3    26      8.1   772.6    0.00     401    52.2
 146    7:10   48.9    76    5.2    29      7.8   772.6    0.00     153    52.3
 146    7:20   48.5    78    4.6    30      6.6   772.7    0.00     179    52.4
 146    7:30   49.6    74    3.5    24      6.4   772.8    0.00     320    52.4

Return to Warm Springs Summit, Nevada graphs page.


Western Regional Climate Center,wrcc@dri.edu